sensor_id;sensor_type;location;lat;lon;timestamp;P1;durP1;ratioP1;P2;durP2;ratioP2
1785;SDS011;890;48.158;11.540;2023-04-24T00:01:41;1.97;;;1.77;;
1785;SDS011;890;48.158;11.540;2023-04-24T00:04:07;1.90;;;1.47;;
1785;SDS011;890;48.158;11.540;2023-04-24T00:06:35;1.50;;;1.40;;
1785;SDS011;890;48.158;11.540;2023-04-24T00:09:07;1.40;;;1.27;;
1785;SDS011;890;48.158;11.540;2023-04-24T00:11:35;2.37;;;1.40;;
1785;SDS011;890;48.158;11.540;2023-04-24T00:14:01;1.83;;;1.63;;
1785;SDS011;890;48.158;11.540;2023-04-24T00:16:26;1.40;;;1.23;;
1785;SDS011;890;48.158;11.540;2023-04-24T00:18:53;1.53;;;1.30;;
1785;SDS011;890;48.158;11.540;2023-04-24T00:21:18;1.57;;;1.10;;
1785;SDS011;890;48.158;11.540;2023-04-24T00:23:44;2.83;;;1.60;;
1785;SDS011;890;48.158;11.540;2023-04-24T00:26:10;1.53;;;1.27;;
1785;SDS011;890;48.158;11.540;2023-04-24T00:28:35;1.67;;;1.40;;
1785;SDS011;890;48.158;11.540;2023-04-24T00:31:01;2.30;;;1.90;;
1785;SDS011;890;48.158;11.540;2023-04-24T00:33:27;1.50;;;1.40;;
1785;SDS011;890;48.158;11.540;2023-04-24T00:35:52;1.87;;;1.30;;
1785;SDS011;890;48.158;11.540;2023-04-24T00:38:18;1.50;;;1.40;;
1785;SDS011;890;48.158;11.540;2023-04-24T00:40:44;1.33;;;1.20;;
1785;SDS011;890;48.158;11.540;2023-04-24T00:43:09;1.40;;;1.20;;
1785;SDS011;890;48.158;11.540;2023-04-24T00:45:35;1.63;;;1.17;;
1785;SDS011;890;48.158;11.540;2023-04-24T00:48:01;1.33;;;1.20;;
1785;SDS011;890;48.158;11.540;2023-04-24T00:50:27;1.87;;;1.20;;
1785;SDS011;890;48.158;11.540;2023-04-24T00:52:53;1.10;;;1.00;;
1785;SDS011;890;48.158;11.540;2023-04-24T00:55:19;1.37;;;1.27;;
1785;SDS011;890;48.158;11.540;2023-04-24T00:57:45;1.33;;;1.23;;
1785;SDS011;890;48.158;11.540;2023-04-24T01:00:12;1.50;;;1.10;;
1785;SDS011;890;48.158;11.540;2023-04-24T01:02:39;1.57;;;1.00;;
1785;SDS011;890;48.158;11.540;2023-04-24T01:05:08;1.43;;;1.00;;
1785;SDS011;890;48.158;11.540;2023-04-24T01:07:34;1.00;;;0.87;;
1785;SDS011;890;48.158;11.540;2023-04-24T01:10:00;1.10;;;1.00;;
1785;SDS011;890;48.158;11.540;2023-04-24T01:12:26;1.60;;;0.90;;
1785;SDS011;890;48.158;11.540;2023-04-24T01:14:52;1.40;;;1.10;;
1785;SDS011;890;48.158;11.540;2023-04-24T01:17:18;2.00;;;1.00;;
1785;SDS011;890;48.158;11.540;2023-04-24T01:19:43;1.27;;;1.10;;
1785;SDS011;890;48.158;11.540;2023-04-24T01:22:15;1.20;;;1.00;;
1785;SDS011;890;48.158;11.540;2023-04-24T01:24:42;2.20;;;0.90;;
1785;SDS011;890;48.158;11.540;2023-04-24T01:27:08;2.70;;;1.10;;
1785;SDS011;890;48.158;11.540;2023-04-24T01:29:35;1.40;;;0.90;;
1785;SDS011;890;48.158;11.540;2023-04-24T01:32:01;1.00;;;0.90;;
1785;SDS011;890;48.158;11.540;2023-04-24T01:34:28;0.90;;;0.70;;
1785;SDS011;890;48.158;11.540;2023-04-24T01:36:54;1.87;;;0.97;;
1785;SDS011;890;48.158;11.540;2023-04-24T01:39:21;0.93;;;0.77;;
1785;SDS011;890;48.158;11.540;2023-04-24T01:41:48;1.57;;;0.93;;
1785;SDS011;890;48.158;11.540;2023-04-24T01:44:15;0.83;;;0.70;;
1785;SDS011;890;48.158;11.540;2023-04-24T01:46:41;1.10;;;0.80;;
1785;SDS011;890;48.158;11.540;2023-04-24T01:49:06;1.37;;;1.13;;
1785;SDS011;890;48.158;11.540;2023-04-24T01:51:32;0.87;;;0.73;;
1785;SDS011;890;48.158;11.540;2023-04-24T01:53:58;0.97;;;0.80;;
1785;SDS011;890;48.158;11.540;2023-04-24T01:56:23;1.10;;;0.80;;
1785;SDS011;890;48.158;11.540;2023-04-24T01:58:50;1.10;;;0.90;;
1785;SDS011;890;48.158;11.540;2023-04-24T02:01:22;1.20;;;0.67;;
1785;SDS011;890;48.158;11.540;2023-04-24T02:03:48;1.87;;;0.90;;
1785;SDS011;890;48.158;11.540;2023-04-24T02:06:14;1.00;;;0.77;;
1785;SDS011;890;48.158;11.540;2023-04-24T02:08:40;0.80;;;0.70;;
1785;SDS011;890;48.158;11.540;2023-04-24T02:11:05;1.10;;;0.90;;
1785;SDS011;890;48.158;11.540;2023-04-24T02:13:31;0.87;;;0.80;;
1785;SDS011;890;48.158;11.540;2023-04-24T02:15:58;1.07;;;0.90;;
1785;SDS011;890;48.158;11.540;2023-04-24T02:18:23;1.67;;;1.00;;
1785;SDS011;890;48.158;11.540;2023-04-24T02:20:49;1.40;;;0.90;;
1785;SDS011;890;48.158;11.540;2023-04-24T02:23:15;1.17;;;1.00;;
1785;SDS011;890;48.158;11.540;2023-04-24T02:25:40;1.47;;;0.80;;
1785;SDS011;890;48.158;11.540;2023-04-24T02:28:06;0.77;;;0.77;;
1785;SDS011;890;48.158;11.540;2023-04-24T02:30:32;0.90;;;0.90;;
1785;SDS011;890;48.158;11.540;2023-04-24T02:32:57;0.90;;;0.90;;
1785;SDS011;890;48.158;11.540;2023-04-24T02:35:23;1.10;;;1.00;;
1785;SDS011;890;48.158;11.540;2023-04-24T02:37:48;1.00;;;0.90;;
1785;SDS011;890;48.158;11.540;2023-04-24T02:40:14;0.90;;;0.83;;
1785;SDS011;890;48.158;11.540;2023-04-24T02:42:40;1.30;;;0.90;;
1785;SDS011;890;48.158;11.540;2023-04-24T02:45:05;1.70;;;1.60;;
1785;SDS011;890;48.158;11.540;2023-04-24T02:47:31;1.83;;;0.90;;
1785;SDS011;890;48.158;11.540;2023-04-24T02:49:57;0.90;;;0.80;;
1785;SDS011;890;48.158;11.540;2023-04-24T02:52:23;2.60;;;1.00;;
1785;SDS011;890;48.158;11.540;2023-04-24T02:54:48;1.40;;;0.97;;
1785;SDS011;890;48.158;11.540;2023-04-24T02:57:14;0.93;;;0.80;;
1785;SDS011;890;48.158;11.540;2023-04-24T02:59:40;1.10;;;0.90;;
1785;SDS011;890;48.158;11.540;2023-04-24T03:02:05;0.93;;;0.87;;
1785;SDS011;890;48.158;11.540;2023-04-24T03:04:31;0.70;;;0.70;;
1785;SDS011;890;48.158;11.540;2023-04-24T03:06:57;1.20;;;0.70;;
1785;SDS011;890;48.158;11.540;2023-04-24T03:09:23;1.93;;;1.10;;
1785;SDS011;890;48.158;11.540;2023-04-24T03:11:49;0.80;;;0.70;;
1785;SDS011;890;48.158;11.540;2023-04-24T03:14:15;0.80;;;0.80;;
1785;SDS011;890;48.158;11.540;2023-04-24T03:16:41;1.20;;;0.93;;
1785;SDS011;890;48.158;11.540;2023-04-24T03:19:07;1.00;;;0.90;;
1785;SDS011;890;48.158;11.540;2023-04-24T03:21:33;0.80;;;0.80;;
1785;SDS011;890;48.158;11.540;2023-04-24T03:24:00;1.40;;;1.17;;
1785;SDS011;890;48.158;11.540;2023-04-24T03:26:26;1.20;;;0.70;;
1785;SDS011;890;48.158;11.540;2023-04-24T03:28:51;2.10;;;0.80;;
1785;SDS011;890;48.158;11.540;2023-04-24T03:31:17;1.50;;;0.97;;
1785;SDS011;890;48.158;11.540;2023-04-24T03:33:44;2.87;;;1.10;;
1785;SDS011;890;48.158;11.540;2023-04-24T03:36:09;1.57;;;1.27;;
1785;SDS011;890;48.158;11.540;2023-04-24T03:38:35;1.10;;;1.00;;
1785;SDS011;890;48.158;11.540;2023-04-24T03:41:00;0.80;;;0.80;;
1785;SDS011;890;48.158;11.540;2023-04-24T03:43:26;1.57;;;1.00;;
1785;SDS011;890;48.158;11.540;2023-04-24T03:45:52;1.40;;;0.93;;
1785;SDS011;890;48.158;11.540;2023-04-24T03:48:18;1.47;;;1.00;;
1785;SDS011;890;48.158;11.540;2023-04-24T03:50:43;1.60;;;1.03;;
1785;SDS011;890;48.158;11.540;2023-04-24T03:53:09;1.70;;;1.10;;
1785;SDS011;890;48.158;11.540;2023-04-24T03:55:34;1.83;;;1.17;;
1785;SDS011;890;48.158;11.540;2023-04-24T03:58:00;1.47;;;1.27;;
1785;SDS011;890;48.158;11.540;2023-04-24T04:00:25;1.17;;;1.07;;
1785;SDS011;890;48.158;11.540;2023-04-24T04:02:51;1.63;;;1.10;;
1785;SDS011;890;48.158;11.540;2023-04-24T04:05:17;1.10;;;1.00;;
1785;SDS011;890;48.158;11.540;2023-04-24T04:07:42;1.20;;;1.10;;
1785;SDS011;890;48.158;11.540;2023-04-24T04:10:08;1.47;;;1.30;;
1785;SDS011;890;48.158;11.540;2023-04-24T04:12:33;2.60;;;1.40;;
1785;SDS011;890;48.158;11.540;2023-04-24T04:14:59;1.53;;;0.90;;
1785;SDS011;890;48.158;11.540;2023-04-24T04:17:25;2.10;;;1.33;;
1785;SDS011;890;48.158;11.540;2023-04-24T04:19:50;1.27;;;1.10;;
1785;SDS011;890;48.158;11.540;2023-04-24T04:22:16;1.67;;;1.03;;
1785;SDS011;890;48.158;11.540;2023-04-24T04:24:41;1.63;;;0.80;;
1785;SDS011;890;48.158;11.540;2023-04-24T04:27:08;1.50;;;1.03;;
1785;SDS011;890;48.158;11.540;2023-04-24T04:29:33;1.00;;;0.87;;
1785;SDS011;890;48.158;11.540;2023-04-24T04:31:59;2.00;;;1.20;;
1785;SDS011;890;48.158;11.540;2023-04-24T04:34:26;1.23;;;1.10;;
1785;SDS011;890;48.158;11.540;2023-04-24T04:36:51;1.40;;;0.93;;
1785;SDS011;890;48.158;11.540;2023-04-24T04:39:17;1.10;;;0.80;;
1785;SDS011;890;48.158;11.540;2023-04-24T04:41:43;1.63;;;1.10;;
1785;SDS011;890;48.158;11.540;2023-04-24T04:44:11;1.63;;;1.00;;
1785;SDS011;890;48.158;11.540;2023-04-24T04:46:37;2.27;;;1.20;;
1785;SDS011;890;48.158;11.540;2023-04-24T04:49:03;2.40;;;1.10;;
1785;SDS011;890;48.158;11.540;2023-04-24T04:51:29;1.53;;;1.10;;
1785;SDS011;890;48.158;11.540;2023-04-24T04:53:55;1.33;;;1.00;;
1785;SDS011;890;48.158;11.540;2023-04-24T04:56:21;1.30;;;1.13;;
1785;SDS011;890;48.158;11.540;2023-04-24T04:58:47;1.77;;;1.17;;
1785;SDS011;890;48.158;11.540;2023-04-24T05:01:12;1.00;;;0.90;;
1785;SDS011;890;48.158;11.540;2023-04-24T05:03:38;2.43;;;1.20;;
1785;SDS011;890;48.158;11.540;2023-04-24T05:06:04;3.10;;;1.00;;
1785;SDS011;890;48.158;11.540;2023-04-24T05:08:30;0.90;;;0.90;;
1785;SDS011;890;48.158;11.540;2023-04-24T05:10:55;1.03;;;0.93;;
1785;SDS011;890;48.158;11.540;2023-04-24T05:13:21;1.87;;;1.10;;
1785;SDS011;890;48.158;11.540;2023-04-24T05:15:46;2.17;;;1.23;;
1785;SDS011;890;48.158;11.540;2023-04-24T05:18:12;2.30;;;1.07;;
1785;SDS011;890;48.158;11.540;2023-04-24T05:20:38;1.07;;;0.90;;
1785;SDS011;890;48.158;11.540;2023-04-24T05:23:04;1.87;;;0.80;;
1785;SDS011;890;48.158;11.540;2023-04-24T05:25:29;1.40;;;1.30;;
1785;SDS011;890;48.158;11.540;2023-04-24T05:28:00;1.13;;;0.97;;
1785;SDS011;890;48.158;11.540;2023-04-24T05:30:25;2.33;;;1.23;;
1785;SDS011;890;48.158;11.540;2023-04-24T05:32:51;1.40;;;0.93;;
1785;SDS011;890;48.158;11.540;2023-04-24T05:35:17;1.00;;;0.87;;
1785;SDS011;890;48.158;11.540;2023-04-24T05:37:43;1.03;;;0.83;;
1785;SDS011;890;48.158;11.540;2023-04-24T05:40:09;2.10;;;1.00;;
1785;SDS011;890;48.158;11.540;2023-04-24T05:42:36;1.90;;;1.53;;
1785;SDS011;890;48.158;11.540;2023-04-24T05:45:01;2.93;;;1.07;;
1785;SDS011;890;48.158;11.540;2023-04-24T05:47:27;1.20;;;0.90;;
1785;SDS011;890;48.158;11.540;2023-04-24T05:49:53;2.10;;;0.87;;
1785;SDS011;890;48.158;11.540;2023-04-24T05:52:18;0.93;;;0.80;;
1785;SDS011;890;48.158;11.540;2023-04-24T05:54:44;0.87;;;0.77;;
1785;SDS011;890;48.158;11.540;2023-04-24T05:57:10;1.63;;;1.10;;
1785;SDS011;890;48.158;11.540;2023-04-24T05:59:36;0.97;;;0.87;;
1785;SDS011;890;48.158;11.540;2023-04-24T06:02:03;1.53;;;1.00;;
1785;SDS011;890;48.158;11.540;2023-04-24T06:04:29;2.40;;;0.90;;
1785;SDS011;890;48.158;11.540;2023-04-24T06:06:54;1.20;;;1.10;;
1785;SDS011;890;48.158;11.540;2023-04-24T06:09:24;1.00;;;0.87;;
1785;SDS011;890;48.158;11.540;2023-04-24T06:11:50;1.30;;;0.90;;
1785;SDS011;890;48.158;11.540;2023-04-24T06:14:18;0.90;;;0.80;;
1785;SDS011;890;48.158;11.540;2023-04-24T06:16:44;1.57;;;0.80;;
1785;SDS011;890;48.158;11.540;2023-04-24T06:19:09;1.00;;;0.80;;
1785;SDS011;890;48.158;11.540;2023-04-24T06:21:35;0.70;;;0.60;;
1785;SDS011;890;48.158;11.540;2023-04-24T06:24:01;2.50;;;0.80;;
1785;SDS011;890;48.158;11.540;2023-04-24T06:26:27;1.07;;;0.73;;
1785;SDS011;890;48.158;11.540;2023-04-24T06:28:52;1.30;;;0.90;;
1785;SDS011;890;48.158;11.540;2023-04-24T06:31:21;0.87;;;0.87;;
1785;SDS011;890;48.158;11.540;2023-04-24T06:33:48;1.20;;;0.90;;
1785;SDS011;890;48.158;11.540;2023-04-24T06:36:13;1.30;;;0.90;;
1785;SDS011;890;48.158;11.540;2023-04-24T06:38:39;0.90;;;0.70;;
1785;SDS011;890;48.158;11.540;2023-04-24T06:41:05;1.63;;;0.80;;
1785;SDS011;890;48.158;11.540;2023-04-24T06:43:33;1.43;;;1.00;;
1785;SDS011;890;48.158;11.540;2023-04-24T06:45:59;1.10;;;0.60;;
1785;SDS011;890;48.158;11.540;2023-04-24T06:48:26;0.80;;;0.70;;
1785;SDS011;890;48.158;11.540;2023-04-24T06:50:52;1.30;;;0.73;;
1785;SDS011;890;48.158;11.540;2023-04-24T06:53:17;4.33;;;1.10;;
1785;SDS011;890;48.158;11.540;2023-04-24T06:55:43;1.90;;;0.87;;
1785;SDS011;890;48.158;11.540;2023-04-24T06:58:11;1.67;;;0.97;;
1785;SDS011;890;48.158;11.540;2023-04-24T07:00:37;1.53;;;1.43;;
1785;SDS011;890;48.158;11.540;2023-04-24T07:03:03;2.53;;;0.90;;
1785;SDS011;890;48.158;11.540;2023-04-24T07:05:32;0.80;;;0.63;;
1785;SDS011;890;48.158;11.540;2023-04-24T07:08:00;1.63;;;0.80;;
1785;SDS011;890;48.158;11.540;2023-04-24T07:10:26;1.20;;;0.93;;
1785;SDS011;890;48.158;11.540;2023-04-24T07:12:53;1.57;;;0.90;;
1785;SDS011;890;48.158;11.540;2023-04-24T07:15:19;2.27;;;0.80;;
1785;SDS011;890;48.158;11.540;2023-04-24T07:17:45;4.10;;;0.60;;
1785;SDS011;890;48.158;11.540;2023-04-24T07:20:11;2.50;;;0.67;;
1785;SDS011;890;48.158;11.540;2023-04-24T07:22:39;1.10;;;0.70;;
1785;SDS011;890;48.158;11.540;2023-04-24T07:25:05;2.00;;;0.70;;
1785;SDS011;890;48.158;11.540;2023-04-24T07:27:31;1.90;;;1.20;;
1785;SDS011;890;48.158;11.540;2023-04-24T07:29:57;1.20;;;0.93;;
1785;SDS011;890;48.158;11.540;2023-04-24T07:32:23;1.10;;;0.80;;
1785;SDS011;890;48.158;11.540;2023-04-24T07:34:49;1.07;;;0.67;;
1785;SDS011;890;48.158;11.540;2023-04-24T07:37:15;0.90;;;0.60;;
1785;SDS011;890;48.158;11.540;2023-04-24T07:39:40;1.30;;;0.70;;
1785;SDS011;890;48.158;11.540;2023-04-24T07:42:06;1.10;;;0.70;;
1785;SDS011;890;48.158;11.540;2023-04-24T07:44:32;1.63;;;0.80;;
1785;SDS011;890;48.158;11.540;2023-04-24T07:46:58;1.27;;;0.80;;
1785;SDS011;890;48.158;11.540;2023-04-24T07:49:24;0.90;;;0.70;;
1785;SDS011;890;48.158;11.540;2023-04-24T07:51:50;0.90;;;0.70;;
1785;SDS011;890;48.158;11.540;2023-04-24T07:54:15;0.97;;;0.77;;
1785;SDS011;890;48.158;11.540;2023-04-24T07:56:41;1.10;;;0.77;;
1785;SDS011;890;48.158;11.540;2023-04-24T07:59:08;1.20;;;0.90;;
1785;SDS011;890;48.158;11.540;2023-04-24T08:01:35;0.60;;;0.50;;
1785;SDS011;890;48.158;11.540;2023-04-24T08:04:01;0.90;;;0.80;;
1785;SDS011;890;48.158;11.540;2023-04-24T08:06:26;1.10;;;0.70;;
1785;SDS011;890;48.158;11.540;2023-04-24T08:08:55;1.37;;;0.90;;
1785;SDS011;890;48.158;11.540;2023-04-24T08:11:21;0.80;;;0.70;;
1785;SDS011;890;48.158;11.540;2023-04-24T08:13:47;0.90;;;0.70;;
1785;SDS011;890;48.158;11.540;2023-04-24T08:16:12;0.70;;;0.60;;
1785;SDS011;890;48.158;11.540;2023-04-24T08:18:38;2.17;;;0.80;;
1785;SDS011;890;48.158;11.540;2023-04-24T08:21:03;1.87;;;0.73;;
1785;SDS011;890;48.158;11.540;2023-04-24T08:23:29;1.27;;;0.60;;
1785;SDS011;890;48.158;11.540;2023-04-24T08:25:55;1.10;;;0.93;;
1785;SDS011;890;48.158;11.540;2023-04-24T08:28:21;2.83;;;0.80;;
1785;SDS011;890;48.158;11.540;2023-04-24T08:30:47;1.37;;;1.00;;
1785;SDS011;890;48.158;11.540;2023-04-24T08:33:13;3.00;;;0.83;;
1785;SDS011;890;48.158;11.540;2023-04-24T08:35:39;1.73;;;0.90;;
1785;SDS011;890;48.158;11.540;2023-04-24T08:38:05;1.17;;;1.00;;
1785;SDS011;890;48.158;11.540;2023-04-24T08:40:30;1.23;;;1.00;;
1785;SDS011;890;48.158;11.540;2023-04-24T08:42:59;0.90;;;0.80;;
1785;SDS011;890;48.158;11.540;2023-04-24T08:45:25;1.30;;;1.10;;
1785;SDS011;890;48.158;11.540;2023-04-24T08:47:52;2.60;;;1.20;;
1785;SDS011;890;48.158;11.540;2023-04-24T08:50:20;1.87;;;1.10;;
1785;SDS011;890;48.158;11.540;2023-04-24T08:52:49;1.30;;;1.20;;
1785;SDS011;890;48.158;11.540;2023-04-24T08:55:15;1.80;;;1.40;;
1785;SDS011;890;48.158;11.540;2023-04-24T08:57:43;1.30;;;1.20;;
1785;SDS011;890;48.158;11.540;2023-04-24T09:00:10;2.13;;;1.50;;
1785;SDS011;890;48.158;11.540;2023-04-24T09:02:36;1.60;;;1.40;;
1785;SDS011;890;48.158;11.540;2023-04-24T09:05:05;3.43;;;1.60;;
1785;SDS011;890;48.158;11.540;2023-04-24T09:07:32;1.70;;;1.50;;
1785;SDS011;890;48.158;11.540;2023-04-24T09:10:01;2.13;;;1.37;;
1785;SDS011;890;48.158;11.540;2023-04-24T09:12:27;2.30;;;1.60;;
1785;SDS011;890;48.158;11.540;2023-04-24T09:14:53;1.87;;;1.57;;
1785;SDS011;890;48.158;11.540;2023-04-24T09:17:20;2.17;;;1.57;;
1785;SDS011;890;48.158;11.540;2023-04-24T09:19:47;1.47;;;1.30;;
1785;SDS011;890;48.158;11.540;2023-04-24T09:22:13;1.70;;;1.30;;
1785;SDS011;890;48.158;11.540;2023-04-24T09:24:40;4.00;;;1.90;;
1785;SDS011;890;48.158;11.540;2023-04-24T09:27:06;2.00;;;1.27;;
1785;SDS011;890;48.158;11.540;2023-04-24T09:29:32;2.17;;;1.40;;
1785;SDS011;890;48.158;11.540;2023-04-24T09:31:58;1.53;;;1.20;;
1785;SDS011;890;48.158;11.540;2023-04-24T09:34:25;2.70;;;1.40;;
1785;SDS011;890;48.158;11.540;2023-04-24T09:36:51;2.63;;;1.80;;
1785;SDS011;890;48.158;11.540;2023-04-24T09:39:17;1.80;;;1.60;;
1785;SDS011;890;48.158;11.540;2023-04-24T09:41:50;1.73;;;1.60;;
1785;SDS011;890;48.158;11.540;2023-04-24T09:44:36;3.43;;;2.80;;
1785;SDS011;890;48.158;11.540;2023-04-24T09:47:01;4.83;;;1.97;;
1785;SDS011;890;48.158;11.540;2023-04-24T09:49:27;2.00;;;1.63;;
1785;SDS011;890;48.158;11.540;2023-04-24T09:52:10;2.30;;;1.80;;
1785;SDS011;890;48.158;11.540;2023-04-24T09:54:36;4.60;;;1.60;;
1785;SDS011;890;48.158;11.540;2023-04-24T09:57:03;3.20;;;1.50;;
1785;SDS011;890;48.158;11.540;2023-04-24T09:59:29;1.80;;;1.60;;
1785;SDS011;890;48.158;11.540;2023-04-24T10:01:55;2.67;;;1.57;;
1785;SDS011;890;48.158;11.540;2023-04-24T10:04:26;2.07;;;1.53;;
1785;SDS011;890;48.158;11.540;2023-04-24T10:06:54;2.50;;;1.60;;
1785;SDS011;890;48.158;11.540;2023-04-24T10:09:24;1.90;;;1.70;;
1785;SDS011;890;48.158;11.540;2023-04-24T10:11:52;1.63;;;1.40;;
1785;SDS011;890;48.158;11.540;2023-04-24T10:14:20;1.80;;;1.70;;
1785;SDS011;890;48.158;11.540;2023-04-24T10:16:54;3.90;;;1.60;;
1785;SDS011;890;48.158;11.540;2023-04-24T10:19:22;1.87;;;1.67;;
1785;SDS011;890;48.158;11.540;2023-04-24T10:21:50;2.10;;;1.60;;
1785;SDS011;890;48.158;11.540;2023-04-24T10:24:18;1.70;;;1.60;;
1785;SDS011;890;48.158;11.540;2023-04-24T10:26:46;2.33;;;1.50;;
1785;SDS011;890;48.158;11.540;2023-04-24T10:29:17;4.77;;;1.87;;
1785;SDS011;890;48.158;11.540;2023-04-24T10:31:43;3.00;;;1.70;;
1785;SDS011;890;48.158;11.540;2023-04-24T10:34:12;1.90;;;1.70;;
1785;SDS011;890;48.158;11.540;2023-04-24T10:36:53;1.60;;;1.50;;
1785;SDS011;890;48.158;11.540;2023-04-24T10:39:20;1.90;;;1.70;;
1785;SDS011;890;48.158;11.540;2023-04-24T10:41:48;1.83;;;1.60;;
1785;SDS011;890;48.158;11.540;2023-04-24T10:44:14;2.23;;;1.57;;
1785;SDS011;890;48.158;11.540;2023-04-24T10:46:46;3.40;;;1.40;;
1785;SDS011;890;48.158;11.540;2023-04-24T10:49:19;1.97;;;1.77;;
1785;SDS011;890;48.158;11.540;2023-04-24T10:51:59;1.50;;;1.40;;
1785;SDS011;890;48.158;11.540;2023-04-24T10:54:35;2.40;;;1.40;;
1785;SDS011;890;48.158;11.540;2023-04-24T10:59:52;1.83;;;1.40;;
1785;SDS011;890;48.158;11.540;2023-04-24T11:02:35;1.90;;;1.60;;
1785;SDS011;890;48.158;11.540;2023-04-24T11:05:03;1.43;;;1.33;;
1785;SDS011;890;48.158;11.540;2023-04-24T11:07:29;1.30;;;1.20;;
1785;SDS011;890;48.158;11.540;2023-04-24T11:09:58;2.13;;;1.40;;
1785;SDS011;890;48.158;11.540;2023-04-24T11:12:25;1.60;;;1.20;;
1785;SDS011;890;48.158;11.540;2023-04-24T11:17:28;1.60;;;1.00;;
1785;SDS011;890;48.158;11.540;2023-04-24T11:19:55;1.10;;;0.87;;
1785;SDS011;890;48.158;11.540;2023-04-24T11:22:26;1.80;;;1.40;;
1785;SDS011;890;48.158;11.540;2023-04-24T11:24:56;1.20;;;1.10;;
1785;SDS011;890;48.158;11.540;2023-04-24T11:27:24;1.30;;;1.10;;
1785;SDS011;890;48.158;11.540;2023-04-24T11:32:33;1.97;;;1.60;;
1785;SDS011;890;48.158;11.540;2023-04-24T11:35:07;2.23;;;1.60;;
1785;SDS011;890;48.158;11.540;2023-04-24T11:37:39;2.30;;;1.30;;
1785;SDS011;890;48.158;11.540;2023-04-24T11:40:06;2.07;;;1.10;;
1785;SDS011;890;48.158;11.540;2023-04-24T11:42:40;2.07;;;1.20;;
1785;SDS011;890;48.158;11.540;2023-04-24T11:45:07;0.97;;;0.87;;
1785;SDS011;890;48.158;11.540;2023-04-24T11:47:35;1.20;;;1.10;;
1785;SDS011;890;48.158;11.540;2023-04-24T11:50:01;1.50;;;1.10;;
1785;SDS011;890;48.158;11.540;2023-04-24T11:52:28;1.20;;;1.00;;
1785;SDS011;890;48.158;11.540;2023-04-24T11:54:55;1.70;;;1.30;;
1785;SDS011;890;48.158;11.540;2023-04-24T11:57:21;1.20;;;1.00;;
1785;SDS011;890;48.158;11.540;2023-04-24T11:59:48;1.60;;;1.10;;
1785;SDS011;890;48.158;11.540;2023-04-24T12:02:24;2.10;;;1.27;;
1785;SDS011;890;48.158;11.540;2023-04-24T12:04:54;2.03;;;1.17;;
1785;SDS011;890;48.158;11.540;2023-04-24T12:07:20;3.60;;;1.60;;
1785;SDS011;890;48.158;11.540;2023-04-24T12:09:47;1.87;;;1.43;;
1785;SDS011;890;48.158;11.540;2023-04-24T12:12:18;2.80;;;1.53;;
1785;SDS011;890;48.158;11.540;2023-04-24T12:17:09;1.40;;;1.10;;
1785;SDS011;890;48.158;11.540;2023-04-24T12:19:35;3.10;;;1.70;;
1785;SDS011;890;48.158;11.540;2023-04-24T12:22:01;2.53;;;1.40;;
1785;SDS011;890;48.158;11.540;2023-04-24T12:24:28;1.93;;;1.27;;
1785;SDS011;890;48.158;11.540;2023-04-24T12:26:55;2.77;;;1.80;;
1785;SDS011;890;48.158;11.540;2023-04-24T12:29:21;2.13;;;1.30;;
1785;SDS011;890;48.158;11.540;2023-04-24T12:31:48;2.20;;;1.20;;
1785;SDS011;890;48.158;11.540;2023-04-24T12:34:18;2.23;;;1.40;;
1785;SDS011;890;48.158;11.540;2023-04-24T12:36:48;1.77;;;1.30;;
1785;SDS011;890;48.158;11.540;2023-04-24T12:39:17;1.53;;;1.37;;
1785;SDS011;890;48.158;11.540;2023-04-24T12:42:25;1.80;;;1.70;;
1785;SDS011;890;48.158;11.540;2023-04-24T12:44:36;1.50;;;1.40;;
1785;SDS011;890;48.158;11.540;2023-04-24T12:47:02;1.60;;;1.33;;
1785;SDS011;890;48.158;11.540;2023-04-24T12:49:31;2.27;;;1.77;;
1785;SDS011;890;48.158;11.540;2023-04-24T12:51:57;2.13;;;1.53;;
1785;SDS011;890;48.158;11.540;2023-04-24T12:54:23;2.00;;;1.40;;
1785;SDS011;890;48.158;11.540;2023-04-24T12:56:48;1.53;;;1.20;;
1785;SDS011;890;48.158;11.540;2023-04-24T12:59:14;1.50;;;1.40;;
1785;SDS011;890;48.158;11.540;2023-04-24T13:01:40;1.50;;;1.40;;
1785;SDS011;890;48.158;11.540;2023-04-24T13:04:06;1.37;;;1.27;;
1785;SDS011;890;48.158;11.540;2023-04-24T13:06:32;1.30;;;1.20;;
1785;SDS011;890;48.158;11.540;2023-04-24T13:08:57;2.10;;;1.40;;
1785;SDS011;890;48.158;11.540;2023-04-24T13:11:23;2.30;;;1.80;;
1785;SDS011;890;48.158;11.540;2023-04-24T13:13:49;2.00;;;1.80;;
1785;SDS011;890;48.158;11.540;2023-04-24T13:16:15;1.97;;;1.47;;
1785;SDS011;890;48.158;11.540;2023-04-24T13:18:41;2.13;;;1.93;;
1785;SDS011;890;48.158;11.540;2023-04-24T13:21:06;5.07;;;2.10;;
1785;SDS011;890;48.158;11.540;2023-04-24T13:23:32;1.70;;;1.60;;
1785;SDS011;890;48.158;11.540;2023-04-24T13:25:58;1.80;;;1.43;;
1785;SDS011;890;48.158;11.540;2023-04-24T13:28:24;1.97;;;1.77;;
1785;SDS011;890;48.158;11.540;2023-04-24T13:30:50;2.40;;;1.40;;
1785;SDS011;890;48.158;11.540;2023-04-24T13:33:16;2.17;;;1.97;;
1785;SDS011;890;48.158;11.540;2023-04-24T13:35:42;2.97;;;1.60;;
1785;SDS011;890;48.158;11.540;2023-04-24T13:38:07;2.07;;;1.87;;
1785;SDS011;890;48.158;11.540;2023-04-24T13:40:33;2.30;;;1.67;;
1785;SDS011;890;48.158;11.540;2023-04-24T13:42:58;3.47;;;1.80;;
1785;SDS011;890;48.158;11.540;2023-04-24T13:45:24;2.77;;;1.60;;
1785;SDS011;890;48.158;11.540;2023-04-24T13:47:50;1.83;;;1.73;;
1785;SDS011;890;48.158;11.540;2023-04-24T13:50:15;2.13;;;1.63;;
1785;SDS011;890;48.158;11.540;2023-04-24T13:52:41;3.20;;;1.93;;
1785;SDS011;890;48.158;11.540;2023-04-24T13:55:07;1.60;;;1.50;;
1785;SDS011;890;48.158;11.540;2023-04-24T13:57:32;2.00;;;1.47;;
1785;SDS011;890;48.158;11.540;2023-04-24T13:59:58;2.37;;;1.50;;
1785;SDS011;890;48.158;11.540;2023-04-24T14:02:28;2.77;;;1.90;;
1785;SDS011;890;48.158;11.540;2023-04-24T14:04:54;1.47;;;1.37;;
1785;SDS011;890;48.158;11.540;2023-04-24T14:07:20;2.40;;;1.83;;
1785;SDS011;890;48.158;11.540;2023-04-24T14:09:46;1.80;;;1.70;;
1785;SDS011;890;48.158;11.540;2023-04-24T14:12:12;2.23;;;1.50;;
1785;SDS011;890;48.158;11.540;2023-04-24T14:14:38;2.13;;;1.70;;
1785;SDS011;890;48.158;11.540;2023-04-24T14:17:04;2.13;;;1.47;;
1785;SDS011;890;48.158;11.540;2023-04-24T14:19:30;5.93;;;2.00;;
1785;SDS011;890;48.158;11.540;2023-04-24T14:21:56;1.77;;;1.67;;
1785;SDS011;890;48.158;11.540;2023-04-24T14:24:23;2.20;;;2.00;;
1785;SDS011;890;48.158;11.540;2023-04-24T14:26:48;1.70;;;1.60;;
1785;SDS011;890;48.158;11.540;2023-04-24T14:29:14;2.40;;;1.67;;
1785;SDS011;890;48.158;11.540;2023-04-24T14:31:41;1.57;;;1.47;;
1785;SDS011;890;48.158;11.540;2023-04-24T14:34:07;1.70;;;1.60;;
1785;SDS011;890;48.158;11.540;2023-04-24T14:36:34;4.17;;;2.00;;
1785;SDS011;890;48.158;11.540;2023-04-24T14:39:00;2.40;;;1.60;;
1785;SDS011;890;48.158;11.540;2023-04-24T14:41:30;1.90;;;1.40;;
1785;SDS011;890;48.158;11.540;2023-04-24T14:43:56;3.10;;;1.90;;
1785;SDS011;890;48.158;11.540;2023-04-24T14:46:22;1.87;;;1.70;;
1785;SDS011;890;48.158;11.540;2023-04-24T14:48:48;2.10;;;1.87;;
1785;SDS011;890;48.158;11.540;2023-04-24T14:51:13;2.20;;;1.93;;
1785;SDS011;890;48.158;11.540;2023-04-24T14:53:40;2.17;;;1.93;;
1785;SDS011;890;48.158;11.540;2023-04-24T14:56:05;2.30;;;2.10;;
1785;SDS011;890;48.158;11.540;2023-04-24T14:58:31;4.53;;;1.83;;
1785;SDS011;890;48.158;11.540;2023-04-24T15:00:57;1.83;;;1.70;;
1785;SDS011;890;48.158;11.540;2023-04-24T15:03:23;1.83;;;1.73;;
1785;SDS011;890;48.158;11.540;2023-04-24T15:05:49;2.07;;;1.73;;
1785;SDS011;890;48.158;11.540;2023-04-24T15:08:15;2.20;;;1.90;;
1785;SDS011;890;48.158;11.540;2023-04-24T15:10:41;2.27;;;1.73;;
1785;SDS011;890;48.158;11.540;2023-04-24T15:13:07;2.63;;;1.50;;
1785;SDS011;890;48.158;11.540;2023-04-24T15:15:32;2.33;;;1.80;;
1785;SDS011;890;48.158;11.540;2023-04-24T15:17:58;2.17;;;1.97;;
1785;SDS011;890;48.158;11.540;2023-04-24T15:20:24;3.57;;;1.73;;
1785;SDS011;890;48.158;11.540;2023-04-24T15:22:49;1.83;;;1.70;;